Terminal Aerodrome Forecast
Issued by NWS Duluth, MN

Home | Current Version | Previous Version | Text Only | Print | Product List | Glossary On
Versions: 1 2 3 4 5 6 7 8 9 10 11 12 13 14 15 16 17 18 19 20 21 22 23 24 25
000
FTUS43 KDLH 301100
TAFDLH
TAF
KDLH 301120Z 3012/3112 33006KT P6SM SCT120
     FM301500 28007KT P6SM BKN060
     FM302000 24010G16KT P6SM VCSH SCT025 OVC040
      TEMPO 3100/3104 4SM -SN BR BKN015
     FM310500 28008KT P6SM VCSH OVC015=

USA.gov is the U.S. government's official web portal to all federal, state and local government web resources and services.